sensor_id;sensor_type;location;lat;lon;timestamp;P1;durP1;ratioP1;P2;durP2;ratioP2
52940;SDS011;62001;53.366;6.636;2022-07-06T00:01:34;8.40;;;1.70;;
52940;SDS011;62001;53.366;6.636;2022-07-06T00:04:03;6.30;;;1.48;;
52940;SDS011;62001;53.366;6.636;2022-07-06T00:06:29;6.37;;;1.33;;
52940;SDS011;62001;53.366;6.636;2022-07-06T00:08:56;10.50;;;1.50;;
52940;SDS011;62001;53.366;6.636;2022-07-06T00:11:22;7.43;;;1.40;;
52940;SDS011;62001;53.366;6.636;2022-07-06T00:13:48;9.35;;;1.40;;
52940;SDS011;62001;53.366;6.636;2022-07-06T00:16:14;4.55;;;1.30;;
52940;SDS011;62001;53.366;6.636;2022-07-06T00:18:40;6.13;;;1.50;;
52940;SDS011;62001;53.366;6.636;2022-07-06T00:21:06;6.20;;;1.40;;
52940;SDS011;62001;53.366;6.636;2022-07-06T00:23:32;3.95;;;1.23;;
52940;SDS011;62001;53.366;6.636;2022-07-06T00:25:57;3.63;;;1.10;;
52940;SDS011;62001;53.366;6.636;2022-07-06T00:28:23;4.20;;;0.98;;
52940;SDS011;62001;53.366;6.636;2022-07-06T00:30:50;7.05;;;1.17;;
52940;SDS011;62001;53.366;6.636;2022-07-06T00:33:15;4.07;;;1.17;;
52940;SDS011;62001;53.366;6.636;2022-07-06T00:35:41;4.50;;;1.02;;
52940;SDS011;62001;53.366;6.636;2022-07-06T00:38:07;5.72;;;1.30;;
52940;SDS011;62001;53.366;6.636;2022-07-06T00:40:33;5.18;;;1.30;;
52940;SDS011;62001;53.366;6.636;2022-07-06T00:42:58;4.68;;;1.15;;
52940;SDS011;62001;53.366;6.636;2022-07-06T00:45:24;3.88;;;0.90;;
52940;SDS011;62001;53.366;6.636;2022-07-06T00:47:50;6.55;;;1.40;;
52940;SDS011;62001;53.366;6.636;2022-07-06T00:50:17;8.88;;;1.35;;
52940;SDS011;62001;53.366;6.636;2022-07-06T00:52:47;9.38;;;1.27;;
52940;SDS011;62001;53.366;6.636;2022-07-06T00:55:16;9.00;;;1.40;;
52940;SDS011;62001;53.366;6.636;2022-07-06T00:57:44;10.68;;;1.90;;
52940;SDS011;62001;53.366;6.636;2022-07-06T01:00:11;7.28;;;1.52;;
52940;SDS011;62001;53.366;6.636;2022-07-06T01:02:39;7.65;;;1.50;;
52940;SDS011;62001;53.366;6.636;2022-07-06T01:05:05;7.70;;;1.30;;
52940;SDS011;62001;53.366;6.636;2022-07-06T01:07:32;4.25;;;1.10;;
52940;SDS011;62001;53.366;6.636;2022-07-06T01:09:59;8.30;;;1.40;;
52940;SDS011;62001;53.366;6.636;2022-07-06T01:12:25;7.68;;;1.20;;
52940;SDS011;62001;53.366;6.636;2022-07-06T01:14:51;9.90;;;1.35;;
52940;SDS011;62001;53.366;6.636;2022-07-06T01:17:18;5.30;;;1.35;;
52940;SDS011;62001;53.366;6.636;2022-07-06T01:19:44;7.25;;;1.38;;
52940;SDS011;62001;53.366;6.636;2022-07-06T01:22:10;7.88;;;1.48;;
52940;SDS011;62001;53.366;6.636;2022-07-06T01:24:36;7.95;;;1.20;;
52940;SDS011;62001;53.366;6.636;2022-07-06T01:27:03;9.48;;;1.48;;
52940;SDS011;62001;53.366;6.636;2022-07-06T01:29:30;3.97;;;1.27;;
52940;SDS011;62001;53.366;6.636;2022-07-06T01:31:57;5.68;;;1.13;;
52940;SDS011;62001;53.366;6.636;2022-07-06T01:34:23;6.78;;;1.20;;
52940;SDS011;62001;53.366;6.636;2022-07-06T01:36:49;6.38;;;1.40;;
52940;SDS011;62001;53.366;6.636;2022-07-06T01:39:15;5.55;;;0.90;;
52940;SDS011;62001;53.366;6.636;2022-07-06T01:41:41;7.07;;;1.30;;
52940;SDS011;62001;53.366;6.636;2022-07-06T01:44:07;5.90;;;1.30;;
52940;SDS011;62001;53.366;6.636;2022-07-06T01:46:33;6.60;;;1.50;;
52940;SDS011;62001;53.366;6.636;2022-07-06T01:48:59;5.75;;;1.20;;
52940;SDS011;62001;53.366;6.636;2022-07-06T01:51:25;6.63;;;1.42;;
52940;SDS011;62001;53.366;6.636;2022-07-06T01:53:51;5.00;;;1.33;;
52940;SDS011;62001;53.366;6.636;2022-07-06T01:56:18;6.57;;;1.17;;
52940;SDS011;62001;53.366;6.636;2022-07-06T01:58:44;6.70;;;1.45;;
52940;SDS011;62001;53.366;6.636;2022-07-06T02:01:12;7.03;;;1.20;;
52940;SDS011;62001;53.366;6.636;2022-07-06T02:03:43;5.22;;;1.08;;
52940;SDS011;62001;53.366;6.636;2022-07-06T02:06:10;8.50;;;1.30;;
52940;SDS011;62001;53.366;6.636;2022-07-06T02:08:37;10.23;;;1.50;;
52940;SDS011;62001;53.366;6.636;2022-07-06T02:11:04;7.75;;;1.25;;
52940;SDS011;62001;53.366;6.636;2022-07-06T02:13:30;8.27;;;1.60;;
52940;SDS011;62001;53.366;6.636;2022-07-06T02:15:56;8.30;;;1.17;;
52940;SDS011;62001;53.366;6.636;2022-07-06T02:18:22;6.35;;;1.23;;
52940;SDS011;62001;53.366;6.636;2022-07-06T02:20:48;5.22;;;1.35;;
52940;SDS011;62001;53.366;6.636;2022-07-06T02:23:14;6.80;;;1.15;;
52940;SDS011;62001;53.366;6.636;2022-07-06T02:25:40;6.75;;;1.65;;
52940;SDS011;62001;53.366;6.636;2022-07-06T02:28:06;7.43;;;1.30;;
52940;SDS011;62001;53.366;6.636;2022-07-06T02:30:31;8.80;;;1.30;;
52940;SDS011;62001;53.366;6.636;2022-07-06T02:32:57;6.00;;;1.10;;
52940;SDS011;62001;53.366;6.636;2022-07-06T02:35:23;11.23;;;1.40;;
52940;SDS011;62001;53.366;6.636;2022-07-06T02:37:49;5.63;;;1.30;;
52940;SDS011;62001;53.366;6.636;2022-07-06T02:40:15;7.32;;;1.45;;
52940;SDS011;62001;53.366;6.636;2022-07-06T02:42:41;5.72;;;1.10;;
52940;SDS011;62001;53.366;6.636;2022-07-06T02:45:07;6.80;;;1.10;;
52940;SDS011;62001;53.366;6.636;2022-07-06T02:47:33;6.35;;;1.10;;
52940;SDS011;62001;53.366;6.636;2022-07-06T02:49:59;7.55;;;1.25;;
52940;SDS011;62001;53.366;6.636;2022-07-06T02:52:24;4.15;;;1.13;;
52940;SDS011;62001;53.366;6.636;2022-07-06T02:54:50;3.55;;;1.20;;
52940;SDS011;62001;53.366;6.636;2022-07-06T02:57:16;5.28;;;1.23;;
52940;SDS011;62001;53.366;6.636;2022-07-06T02:59:42;6.80;;;1.23;;
52940;SDS011;62001;53.366;6.636;2022-07-06T03:02:09;7.22;;;1.20;;
52940;SDS011;62001;53.366;6.636;2022-07-06T03:04:35;4.47;;;1.00;;
52940;SDS011;62001;53.366;6.636;2022-07-06T03:07:01;6.70;;;1.05;;
52940;SDS011;62001;53.366;6.636;2022-07-06T03:09:27;6.00;;;1.13;;
52940;SDS011;62001;53.366;6.636;2022-07-06T03:11:53;5.43;;;0.80;;
52940;SDS011;62001;53.366;6.636;2022-07-06T03:14:18;3.80;;;1.00;;
52940;SDS011;62001;53.366;6.636;2022-07-06T03:16:44;5.00;;;1.00;;
52940;SDS011;62001;53.366;6.636;2022-07-06T03:19:10;7.05;;;1.10;;
52940;SDS011;62001;53.366;6.636;2022-07-06T03:21:36;4.45;;;1.05;;
52940;SDS011;62001;53.366;6.636;2022-07-06T03:24:01;4.82;;;1.00;;
52940;SDS011;62001;53.366;6.636;2022-07-06T03:26:27;5.07;;;1.15;;
52940;SDS011;62001;53.366;6.636;2022-07-06T03:28:53;7.80;;;0.90;;
52940;SDS011;62001;53.366;6.636;2022-07-06T03:31:19;7.55;;;1.00;;
52940;SDS011;62001;53.366;6.636;2022-07-06T03:33:44;5.70;;;1.00;;
52940;SDS011;62001;53.366;6.636;2022-07-06T03:36:10;5.80;;;1.17;;
52940;SDS011;62001;53.366;6.636;2022-07-06T03:38:36;4.13;;;1.08;;
52940;SDS011;62001;53.366;6.636;2022-07-06T03:41:02;5.43;;;0.85;;
52940;SDS011;62001;53.366;6.636;2022-07-06T03:43:28;4.85;;;0.75;;
52940;SDS011;62001;53.366;6.636;2022-07-06T03:45:55;6.10;;;1.13;;
52940;SDS011;62001;53.366;6.636;2022-07-06T03:48:21;9.48;;;1.02;;
52940;SDS011;62001;53.366;6.636;2022-07-06T03:50:47;5.60;;;0.93;;
52940;SDS011;62001;53.366;6.636;2022-07-06T03:53:12;10.02;;;1.13;;
52940;SDS011;62001;53.366;6.636;2022-07-06T03:55:38;3.80;;;0.95;;
52940;SDS011;62001;53.366;6.636;2022-07-06T03:58:04;3.53;;;1.00;;
52940;SDS011;62001;53.366;6.636;2022-07-06T04:00:30;4.38;;;1.00;;
52940;SDS011;62001;53.366;6.636;2022-07-06T04:02:55;7.53;;;1.20;;
52940;SDS011;62001;53.366;6.636;2022-07-06T04:05:21;7.97;;;1.17;;
52940;SDS011;62001;53.366;6.636;2022-07-06T04:07:48;7.68;;;1.20;;
52940;SDS011;62001;53.366;6.636;2022-07-06T04:10:14;6.45;;;1.35;;
52940;SDS011;62001;53.366;6.636;2022-07-06T04:12:43;7.43;;;1.35;;
52940;SDS011;62001;53.366;6.636;2022-07-06T04:15:10;7.25;;;1.20;;
52940;SDS011;62001;53.366;6.636;2022-07-06T04:17:37;5.13;;;0.88;;
52940;SDS011;62001;53.366;6.636;2022-07-06T04:20:21;4.95;;;1.13;;
52940;SDS011;62001;53.366;6.636;2022-07-06T04:22:48;3.13;;;1.02;;
52940;SDS011;62001;53.366;6.636;2022-07-06T04:25:14;8.70;;;1.20;;
52940;SDS011;62001;53.366;6.636;2022-07-06T04:27:40;9.10;;;1.67;;
52940;SDS011;62001;53.366;6.636;2022-07-06T04:30:07;5.60;;;1.10;;
52940;SDS011;62001;53.366;6.636;2022-07-06T04:32:34;4.70;;;1.20;;
52940;SDS011;62001;53.366;6.636;2022-07-06T04:35:00;4.20;;;1.10;;
52940;SDS011;62001;53.366;6.636;2022-07-06T04:37:26;4.43;;;0.98;;
52940;SDS011;62001;53.366;6.636;2022-07-06T04:39:52;6.15;;;1.23;;
52940;SDS011;62001;53.366;6.636;2022-07-06T04:42:18;6.38;;;1.20;;
52940;SDS011;62001;53.366;6.636;2022-07-06T04:44:44;9.00;;;1.30;;
52940;SDS011;62001;53.366;6.636;2022-07-06T04:47:11;4.53;;;1.17;;
52940;SDS011;62001;53.366;6.636;2022-07-06T04:49:37;6.93;;;1.10;;
52940;SDS011;62001;53.366;6.636;2022-07-06T04:52:03;7.43;;;1.30;;
52940;SDS011;62001;53.366;6.636;2022-07-06T04:54:30;2.47;;;0.93;;
52940;SDS011;62001;53.366;6.636;2022-07-06T04:56:56;8.18;;;1.10;;
52940;SDS011;62001;53.366;6.636;2022-07-06T04:59:21;6.47;;;1.10;;
52940;SDS011;62001;53.366;6.636;2022-07-06T05:01:47;6.40;;;1.05;;
52940;SDS011;62001;53.366;6.636;2022-07-06T05:04:13;4.28;;;0.88;;
52940;SDS011;62001;53.366;6.636;2022-07-06T05:06:39;4.00;;;0.80;;
52940;SDS011;62001;53.366;6.636;2022-07-06T05:09:05;1.77;;;0.70;;
52940;SDS011;62001;53.366;6.636;2022-07-06T05:11:31;2.47;;;0.85;;
52940;SDS011;62001;53.366;6.636;2022-07-06T05:13:57;6.53;;;0.95;;
52940;SDS011;62001;53.366;6.636;2022-07-06T05:16:23;4.07;;;0.90;;
52940;SDS011;62001;53.366;6.636;2022-07-06T05:18:49;4.25;;;0.88;;
52940;SDS011;62001;53.366;6.636;2022-07-06T05:21:15;3.72;;;0.82;;
52940;SDS011;62001;53.366;6.636;2022-07-06T05:23:41;5.40;;;0.90;;
52940;SDS011;62001;53.366;6.636;2022-07-06T05:26:06;2.78;;;0.93;;
52940;SDS011;62001;53.366;6.636;2022-07-06T05:28:32;3.45;;;1.08;;
52940;SDS011;62001;53.366;6.636;2022-07-06T05:30:58;5.97;;;0.95;;
52940;SDS011;62001;53.366;6.636;2022-07-06T05:33:24;4.00;;;0.80;;
52940;SDS011;62001;53.366;6.636;2022-07-06T05:35:52;4.65;;;1.00;;
52940;SDS011;62001;53.366;6.636;2022-07-06T05:38:18;3.00;;;0.85;;
52940;SDS011;62001;53.366;6.636;2022-07-06T05:40:44;4.47;;;0.70;;
52940;SDS011;62001;53.366;6.636;2022-07-06T05:43:10;5.53;;;1.00;;
52940;SDS011;62001;53.366;6.636;2022-07-06T05:45:36;3.08;;;0.98;;
52940;SDS011;62001;53.366;6.636;2022-07-06T05:48:02;5.60;;;0.88;;
52940;SDS011;62001;53.366;6.636;2022-07-06T05:50:46;4.45;;;1.00;;
52940;SDS011;62001;53.366;6.636;2022-07-06T05:53:15;2.47;;;0.80;;
52940;SDS011;62001;53.366;6.636;2022-07-06T05:55:41;4.28;;;0.80;;
52940;SDS011;62001;53.366;6.636;2022-07-06T05:58:07;5.40;;;1.00;;
52940;SDS011;62001;53.366;6.636;2022-07-06T06:00:32;4.47;;;1.00;;
52940;SDS011;62001;53.366;6.636;2022-07-06T06:02:58;5.63;;;1.00;;
52940;SDS011;62001;53.366;6.636;2022-07-06T06:05:24;5.78;;;1.02;;
52940;SDS011;62001;53.366;6.636;2022-07-06T06:07:50;6.10;;;1.00;;
52940;SDS011;62001;53.366;6.636;2022-07-06T06:10:18;6.75;;;1.05;;
52940;SDS011;62001;53.366;6.636;2022-07-06T06:12:44;5.03;;;1.10;;
52940;SDS011;62001;53.366;6.636;2022-07-06T06:15:11;4.25;;;1.00;;
52940;SDS011;62001;53.366;6.636;2022-07-06T06:17:37;5.03;;;0.90;;
52940;SDS011;62001;53.366;6.636;2022-07-06T06:20:04;5.38;;;0.85;;
52940;SDS011;62001;53.366;6.636;2022-07-06T06:22:34;5.38;;;1.10;;
52940;SDS011;62001;53.366;6.636;2022-07-06T06:25:10;4.72;;;0.93;;
52940;SDS011;62001;53.366;6.636;2022-07-06T06:27:35;5.03;;;0.70;;
52940;SDS011;62001;53.366;6.636;2022-07-06T06:30:01;7.80;;;1.00;;
52940;SDS011;62001;53.366;6.636;2022-07-06T06:32:27;4.63;;;0.93;;
52940;SDS011;62001;53.366;6.636;2022-07-06T06:34:53;4.60;;;1.00;;
52940;SDS011;62001;53.366;6.636;2022-07-06T06:37:18;2.88;;;0.80;;
52940;SDS011;62001;53.366;6.636;2022-07-06T06:39:44;5.10;;;0.90;;
52940;SDS011;62001;53.366;6.636;2022-07-06T06:42:10;3.88;;;0.70;;
52940;SDS011;62001;53.366;6.636;2022-07-06T06:44:36;3.85;;;0.82;;
52940;SDS011;62001;53.366;6.636;2022-07-06T06:47:01;3.60;;;0.93;;
52940;SDS011;62001;53.366;6.636;2022-07-06T06:49:27;4.32;;;1.08;;
52940;SDS011;62001;53.366;6.636;2022-07-06T06:51:53;5.43;;;1.00;;
52940;SDS011;62001;53.366;6.636;2022-07-06T06:54:19;8.02;;;1.17;;
52940;SDS011;62001;53.366;6.636;2022-07-06T06:56:44;9.45;;;1.25;;
52940;SDS011;62001;53.366;6.636;2022-07-06T06:59:10;2.88;;;0.80;;
52940;SDS011;62001;53.366;6.636;2022-07-06T07:01:36;5.65;;;0.90;;
52940;SDS011;62001;53.366;6.636;2022-07-06T07:04:02;3.88;;;0.82;;
52940;SDS011;62001;53.366;6.636;2022-07-06T07:06:27;4.40;;;0.80;;
52940;SDS011;62001;53.366;6.636;2022-07-06T07:08:53;6.45;;;1.00;;
52940;SDS011;62001;53.366;6.636;2022-07-06T07:11:20;5.50;;;1.02;;
52940;SDS011;62001;53.366;6.636;2022-07-06T07:13:46;6.50;;;1.02;;
52940;SDS011;62001;53.366;6.636;2022-07-06T07:16:12;4.82;;;0.80;;
52940;SDS011;62001;53.366;6.636;2022-07-06T07:18:38;5.80;;;1.00;;
52940;SDS011;62001;53.366;6.636;2022-07-06T07:21:04;5.13;;;0.90;;
52940;SDS011;62001;53.366;6.636;2022-07-06T07:23:30;4.35;;;0.98;;
52940;SDS011;62001;53.366;6.636;2022-07-06T07:25:55;4.28;;;1.00;;
52940;SDS011;62001;53.366;6.636;2022-07-06T07:28:21;4.85;;;1.02;;
52940;SDS011;62001;53.366;6.636;2022-07-06T07:30:47;1.73;;;0.60;;
52940;SDS011;62001;53.366;6.636;2022-07-06T07:33:13;7.95;;;1.08;;
52940;SDS011;62001;53.366;6.636;2022-07-06T07:35:38;4.28;;;0.80;;
52940;SDS011;62001;53.366;6.636;2022-07-06T07:38:04;6.15;;;0.90;;
52940;SDS011;62001;53.366;6.636;2022-07-06T07:40:30;4.47;;;1.00;;
52940;SDS011;62001;53.366;6.636;2022-07-06T07:42:56;3.28;;;0.75;;
52940;SDS011;62001;53.366;6.636;2022-07-06T07:45:22;8.00;;;0.95;;
52940;SDS011;62001;53.366;6.636;2022-07-06T07:47:48;6.55;;;1.00;;
52940;SDS011;62001;53.366;6.636;2022-07-06T07:50:14;3.80;;;0.80;;
52940;SDS011;62001;53.366;6.636;2022-07-06T07:52:40;7.80;;;0.98;;
52940;SDS011;62001;53.366;6.636;2022-07-06T07:55:06;5.35;;;1.13;;
52940;SDS011;62001;53.366;6.636;2022-07-06T07:57:32;7.63;;;1.33;;
52940;SDS011;62001;53.366;6.636;2022-07-06T07:59:58;4.35;;;1.10;;
52940;SDS011;62001;53.366;6.636;2022-07-06T08:02:23;6.53;;;1.10;;
52940;SDS011;62001;53.366;6.636;2022-07-06T08:04:49;3.83;;;0.90;;
52940;SDS011;62001;53.366;6.636;2022-07-06T08:07:15;5.25;;;1.05;;
52940;SDS011;62001;53.366;6.636;2022-07-06T08:09:41;5.10;;;1.05;;
52940;SDS011;62001;53.366;6.636;2022-07-06T08:12:07;3.90;;;0.90;;
52940;SDS011;62001;53.366;6.636;2022-07-06T08:14:33;5.13;;;0.75;;
52940;SDS011;62001;53.366;6.636;2022-07-06T08:16:59;3.00;;;0.80;;
52940;SDS011;62001;53.366;6.636;2022-07-06T08:19:25;3.42;;;0.80;;
52940;SDS011;62001;53.366;6.636;2022-07-06T08:21:51;6.03;;;0.98;;
52940;SDS011;62001;53.366;6.636;2022-07-06T08:24:17;6.45;;;1.00;;
52940;SDS011;62001;53.366;6.636;2022-07-06T08:26:43;3.58;;;0.85;;
52940;SDS011;62001;53.366;6.636;2022-07-06T08:29:08;2.95;;;1.08;;
52940;SDS011;62001;53.366;6.636;2022-07-06T08:31:34;7.25;;;0.95;;
52940;SDS011;62001;53.366;6.636;2022-07-06T08:34:00;5.82;;;0.90;;
52940;SDS011;62001;53.366;6.636;2022-07-06T08:36:27;5.55;;;0.90;;
52940;SDS011;62001;53.366;6.636;2022-07-06T08:38:53;2.80;;;0.75;;
52940;SDS011;62001;53.366;6.636;2022-07-06T08:41:21;3.55;;;0.93;;
52940;SDS011;62001;53.366;6.636;2022-07-06T08:43:50;4.03;;;0.88;;
52940;SDS011;62001;53.366;6.636;2022-07-06T08:46:16;2.45;;;0.80;;
52940;SDS011;62001;53.366;6.636;2022-07-06T08:48:43;2.00;;;0.60;;
52940;SDS011;62001;53.366;6.636;2022-07-06T08:51:11;5.25;;;1.08;;
52940;SDS011;62001;53.366;6.636;2022-07-06T08:53:40;3.35;;;0.60;;
52940;SDS011;62001;53.366;6.636;2022-07-06T08:56:07;3.58;;;0.73;;
52940;SDS011;62001;53.366;6.636;2022-07-06T08:58:33;5.38;;;1.00;;
52940;SDS011;62001;53.366;6.636;2022-07-06T09:01:00;3.47;;;0.68;;
52940;SDS011;62001;53.366;6.636;2022-07-06T09:03:26;3.50;;;0.80;;
52940;SDS011;62001;53.366;6.636;2022-07-06T09:05:53;2.30;;;0.70;;
52940;SDS011;62001;53.366;6.636;2022-07-06T09:08:25;4.38;;;0.77;;
52940;SDS011;62001;53.366;6.636;2022-07-06T09:10:52;3.75;;;0.93;;
52940;SDS011;62001;53.366;6.636;2022-07-06T09:13:18;5.45;;;0.70;;
52940;SDS011;62001;53.366;6.636;2022-07-06T09:15:44;2.75;;;0.77;;
52940;SDS011;62001;53.366;6.636;2022-07-06T09:18:10;3.33;;;0.70;;
52940;SDS011;62001;53.366;6.636;2022-07-06T09:20:36;3.85;;;0.80;;
52940;SDS011;62001;53.366;6.636;2022-07-06T09:23:03;6.40;;;1.23;;
52940;SDS011;62001;53.366;6.636;2022-07-06T09:25:31;4.83;;;1.23;;
52940;SDS011;62001;53.366;6.636;2022-07-06T09:27:58;1.88;;;0.55;;
52940;SDS011;62001;53.366;6.636;2022-07-06T09:30:25;3.17;;;0.90;;
52940;SDS011;62001;53.366;6.636;2022-07-06T09:32:53;2.97;;;0.80;;
52940;SDS011;62001;53.366;6.636;2022-07-06T09:37:59;7.80;;;1.02;;
52940;SDS011;62001;53.366;6.636;2022-07-06T09:40:34;7.60;;;1.20;;
52940;SDS011;62001;53.366;6.636;2022-07-06T09:43:18;6.50;;;1.13;;
52940;SDS011;62001;53.366;6.636;2022-07-06T09:45:51;3.15;;;0.90;;
52940;SDS011;62001;53.366;6.636;2022-07-06T09:48:19;6.85;;;1.20;;
52940;SDS011;62001;53.366;6.636;2022-07-06T09:53:18;7.25;;;1.20;;
52940;SDS011;62001;53.366;6.636;2022-07-06T09:55:46;3.92;;;1.30;;
52940;SDS011;62001;53.366;6.636;2022-07-06T09:58:14;5.57;;;1.30;;
52940;SDS011;62001;53.366;6.636;2022-07-06T10:00:41;5.38;;;1.00;;
52940;SDS011;62001;53.366;6.636;2022-07-06T10:03:08;3.38;;;0.90;;
52940;SDS011;62001;53.366;6.636;2022-07-06T10:05:37;3.65;;;0.80;;
52940;SDS011;62001;53.366;6.636;2022-07-06T10:08:04;4.05;;;1.00;;
52940;SDS011;62001;53.366;6.636;2022-07-06T10:13:00;4.93;;;0.85;;
52940;SDS011;62001;53.366;6.636;2022-07-06T10:15:28;4.07;;;1.48;;
52940;SDS011;62001;53.366;6.636;2022-07-06T10:17:58;3.60;;;0.90;;
52940;SDS011;62001;53.366;6.636;2022-07-06T10:20:29;3.03;;;1.00;;
52940;SDS011;62001;53.366;6.636;2022-07-06T10:23:00;5.55;;;1.30;;
52940;SDS011;62001;53.366;6.636;2022-07-06T10:25:27;7.03;;;1.17;;
52940;SDS011;62001;53.366;6.636;2022-07-06T10:27:53;4.75;;;0.95;;
52940;SDS011;62001;53.366;6.636;2022-07-06T10:30:20;4.50;;;0.98;;
52940;SDS011;62001;53.366;6.636;2022-07-06T10:32:48;4.68;;;1.25;;
52940;SDS011;62001;53.366;6.636;2022-07-06T10:35:18;4.63;;;1.13;;
52940;SDS011;62001;53.366;6.636;2022-07-06T10:37:44;4.70;;;0.93;;
52940;SDS011;62001;53.366;6.636;2022-07-06T10:40:13;5.25;;;1.10;;
52940;SDS011;62001;53.366;6.636;2022-07-06T10:43:11;5.93;;;1.63;;
52940;SDS011;62001;53.366;6.636;2022-07-06T10:50:40;4.32;;;1.00;;
52940;SDS011;62001;53.366;6.636;2022-07-06T10:53:12;4.05;;;0.80;;
52940;SDS011;62001;53.366;6.636;2022-07-06T10:55:40;2.55;;;0.80;;
52940;SDS011;62001;53.366;6.636;2022-07-06T10:58:09;2.88;;;0.70;;
52940;SDS011;62001;53.366;6.636;2022-07-06T11:03:34;3.15;;;0.90;;
52940;SDS011;62001;53.366;6.636;2022-07-06T11:08:49;3.88;;;1.05;;
52940;SDS011;62001;53.366;6.636;2022-07-06T11:16:18;5.00;;;1.00;;
52940;SDS011;62001;53.366;6.636;2022-07-06T11:18:48;4.07;;;0.80;;
52940;SDS011;62001;53.366;6.636;2022-07-06T11:21:24;4.45;;;0.98;;
52940;SDS011;62001;53.366;6.636;2022-07-06T11:23:57;2.80;;;0.95;;
52940;SDS011;62001;53.366;6.636;2022-07-06T11:26:23;4.07;;;1.00;;
52940;SDS011;62001;53.366;6.636;2022-07-06T11:28:50;2.53;;;0.85;;
52940;SDS011;62001;53.366;6.636;2022-07-06T11:31:17;4.65;;;0.90;;
52940;SDS011;62001;53.366;6.636;2022-07-06T11:33:46;3.50;;;0.80;;
52940;SDS011;62001;53.366;6.636;2022-07-06T11:36:19;2.75;;;0.90;;
52940;SDS011;62001;53.366;6.636;2022-07-06T11:38:47;1.73;;;0.68;;
52940;SDS011;62001;53.366;6.636;2022-07-06T11:41:15;4.18;;;1.00;;
52940;SDS011;62001;53.366;6.636;2022-07-06T11:43:42;5.05;;;0.82;;
52940;SDS011;62001;53.366;6.636;2022-07-06T11:48:56;3.15;;;0.90;;
52940;SDS011;62001;53.366;6.636;2022-07-06T11:51:26;3.63;;;0.82;;
52940;SDS011;62001;53.366;6.636;2022-07-06T11:53:57;4.28;;;0.80;;
52940;SDS011;62001;53.366;6.636;2022-07-06T11:56:28;1.85;;;0.88;;
52940;SDS011;62001;53.366;6.636;2022-07-06T11:58:55;5.00;;;0.80;;
52940;SDS011;62001;53.366;6.636;2022-07-06T12:01:23;3.90;;;0.90;;
52940;SDS011;62001;53.366;6.636;2022-07-06T12:03:50;5.60;;;0.90;;
52940;SDS011;62001;53.366;6.636;2022-07-06T12:06:20;4.55;;;0.90;;
52940;SDS011;62001;53.366;6.636;2022-07-06T12:08:49;2.63;;;1.10;;
52940;SDS011;62001;53.366;6.636;2022-07-06T12:11:26;4.50;;;0.93;;
52940;SDS011;62001;53.366;6.636;2022-07-06T12:13:54;4.13;;;1.33;;
52940;SDS011;62001;53.366;6.636;2022-07-06T12:16:29;5.35;;;1.50;;
52940;SDS011;62001;53.366;6.636;2022-07-06T12:18:56;3.33;;;1.20;;
52940;SDS011;62001;53.366;6.636;2022-07-06T12:21:22;5.35;;;2.03;;
52940;SDS011;62001;53.366;6.636;2022-07-06T12:23:49;4.47;;;1.67;;
52940;SDS011;62001;53.366;6.636;2022-07-06T12:26:17;4.22;;;1.30;;
52940;SDS011;62001;53.366;6.636;2022-07-06T12:28:45;4.68;;;1.55;;
52940;SDS011;62001;53.366;6.636;2022-07-06T12:31:34;3.35;;;0.95;;
52940;SDS011;62001;53.366;6.636;2022-07-06T12:34:01;4.85;;;1.02;;
52940;SDS011;62001;53.366;6.636;2022-07-06T12:36:27;4.53;;;0.80;;
52940;SDS011;62001;53.366;6.636;2022-07-06T12:38:53;2.13;;;0.73;;
52940;SDS011;62001;53.366;6.636;2022-07-06T12:43:59;2.70;;;1.17;;
52940;SDS011;62001;53.366;6.636;2022-07-06T12:46:31;3.28;;;0.98;;
52940;SDS011;62001;53.366;6.636;2022-07-06T12:49:00;7.47;;;1.73;;
52940;SDS011;62001;53.366;6.636;2022-07-06T12:51:27;3.55;;;1.27;;
52940;SDS011;62001;53.366;6.636;2022-07-06T12:54:11;3.92;;;1.33;;
52940;SDS011;62001;53.366;6.636;2022-07-06T12:56:55;4.05;;;1.60;;
52940;SDS011;62001;53.366;6.636;2022-07-06T12:59:22;3.13;;;1.00;;
52940;SDS011;62001;53.366;6.636;2022-07-06T13:01:48;3.47;;;0.80;;
52940;SDS011;62001;53.366;6.636;2022-07-06T13:04:16;4.82;;;1.58;;
52940;SDS011;62001;53.366;6.636;2022-07-06T13:06:41;4.25;;;1.30;;
52940;SDS011;62001;53.366;6.636;2022-07-06T13:09:07;5.18;;;1.10;;
52940;SDS011;62001;53.366;6.636;2022-07-06T13:11:33;6.20;;;1.55;;
52940;SDS011;62001;53.366;6.636;2022-07-06T13:13:59;4.10;;;1.80;;
52940;SDS011;62001;53.366;6.636;2022-07-06T13:16:25;3.10;;;1.08;;
52940;SDS011;62001;53.366;6.636;2022-07-06T13:18:55;4.78;;;1.48;;
52940;SDS011;62001;53.366;6.636;2022-07-06T13:21:21;5.43;;;1.20;;
52940;SDS011;62001;53.366;6.636;2022-07-06T13:23:47;3.40;;;1.10;;
52940;SDS011;62001;53.366;6.636;2022-07-06T13:26:13;5.03;;;1.17;;
52940;SDS011;62001;53.366;6.636;2022-07-06T13:28:39;2.97;;;1.00;;
52940;SDS011;62001;53.366;6.636;2022-07-06T13:31:04;3.53;;;1.52;;
52940;SDS011;62001;53.366;6.636;2022-07-06T13:33:30;4.93;;;1.60;;
52940;SDS011;62001;53.366;6.636;2022-07-06T13:35:56;4.45;;;1.90;;
52940;SDS011;62001;53.366;6.636;2022-07-06T13:38:22;6.82;;;1.52;;
52940;SDS011;62001;53.366;6.636;2022-07-06T13:40:47;5.15;;;1.38;;
52940;SDS011;62001;53.366;6.636;2022-07-06T13:43:13;2.50;;;1.23;;
52940;SDS011;62001;53.366;6.636;2022-07-06T13:45:39;6.32;;;1.65;;
52940;SDS011;62001;53.366;6.636;2022-07-06T13:48:05;3.58;;;1.50;;
52940;SDS011;62001;53.366;6.636;2022-07-06T13:50:31;4.75;;;1.40;;
52940;SDS011;62001;53.366;6.636;2022-07-06T13:52:57;3.47;;;1.48;;
52940;SDS011;62001;53.366;6.636;2022-07-06T13:55:23;4.20;;;1.20;;
52940;SDS011;62001;53.366;6.636;2022-07-06T13:57:49;3.63;;;1.30;;
52940;SDS011;62001;53.366;6.636;2022-07-06T14:00:15;5.22;;;1.77;;
52940;SDS011;62001;53.366;6.636;2022-07-06T14:02:43;3.72;;;1.40;;
52940;SDS011;62001;53.366;6.636;2022-07-06T14:05:10;2.85;;;1.00;;
52940;SDS011;62001;53.366;6.636;2022-07-06T14:07:36;4.60;;;0.90;;
52940;SDS011;62001;53.366;6.636;2022-07-06T14:10:02;3.50;;;1.27;;
52940;SDS011;62001;53.366;6.636;2022-07-06T14:12:28;3.50;;;0.93;;
52940;SDS011;62001;53.366;6.636;2022-07-06T14:14:54;2.50;;;1.00;;
52940;SDS011;62001;53.366;6.636;2022-07-06T14:17:20;2.88;;;0.90;;
52940;SDS011;62001;53.366;6.636;2022-07-06T14:19:47;4.03;;;0.93;;
52940;SDS011;62001;53.366;6.636;2022-07-06T14:22:13;2.50;;;0.98;;
52940;SDS011;62001;53.366;6.636;2022-07-06T14:24:39;3.42;;;0.95;;
52940;SDS011;62001;53.366;6.636;2022-07-06T14:27:05;4.47;;;1.10;;
52940;SDS011;62001;53.366;6.636;2022-07-06T14:29:30;8.88;;;1.45;;
52940;SDS011;62001;53.366;6.636;2022-07-06T14:31:56;4.88;;;1.17;;
52940;SDS011;62001;53.366;6.636;2022-07-06T14:34:22;3.45;;;1.10;;
52940;SDS011;62001;53.366;6.636;2022-07-06T14:36:48;2.95;;;1.20;;
52940;SDS011;62001;53.366;6.636;2022-07-06T14:39:13;5.72;;;1.40;;
52940;SDS011;62001;53.366;6.636;2022-07-06T14:41:39;6.25;;;1.27;;
52940;SDS011;62001;53.366;6.636;2022-07-06T14:44:05;7.05;;;1.38;;
52940;SDS011;62001;53.366;6.636;2022-07-06T14:46:31;3.45;;;1.33;;
52940;SDS011;62001;53.366;6.636;2022-07-06T14:48:57;5.13;;;1.40;;
52940;SDS011;62001;53.366;6.636;2022-07-06T14:51:23;4.63;;;1.45;;
52940;SDS011;62001;53.366;6.636;2022-07-06T14:53:49;6.10;;;1.38;;
52940;SDS011;62001;53.366;6.636;2022-07-06T14:56:15;4.53;;;1.40;;
52940;SDS011;62001;53.366;6.636;2022-07-06T14:58:40;5.65;;;1.42;;
52940;SDS011;62001;53.366;6.636;2022-07-06T15:01:07;4.82;;;1.50;;
52940;SDS011;62001;53.366;6.636;2022-07-06T15:03:33;5.22;;;1.85;;
52940;SDS011;62001;53.366;6.636;2022-07-06T15:05:59;5.70;;;1.70;;
52940;SDS011;62001;53.366;6.636;2022-07-06T15:08:25;5.65;;;1.80;;
52940;SDS011;62001;53.366;6.636;2022-07-06T15:10:51;3.30;;;1.40;;
52940;SDS011;62001;53.366;6.636;2022-07-06T15:13:17;5.25;;;1.95;;
52940;SDS011;62001;53.366;6.636;2022-07-06T15:15:43;4.53;;;1.50;;